sensor_id;sensor_type;location;lat;lon;timestamp;pressure;altitude;pressure_sealevel;temperature;humidity
83843;BME280;73869;52.336;21.182;2024-01-25T00:02:08;99495.41;;;6.13;86.21
83843;BME280;73869;52.336;21.182;2024-01-25T00:04:34;99483.75;;;6.19;85.33
83843;BME280;73869;52.336;21.182;2024-01-25T00:07:01;99481.28;;;6.18;85.23
83843;BME280;73869;52.336;21.182;2024-01-25T00:09:28;99472.09;;;6.25;84.62
83843;BME280;73869;52.336;21.182;2024-01-25T00:11:54;99486.41;;;6.32;83.84
83843;BME280;73869;52.336;21.182;2024-01-25T00:14:21;99490.94;;;6.32;83.82
83843;BME280;73869;52.336;21.182;2024-01-25T00:16:48;99484.78;;;6.25;83.84
83843;BME280;73869;52.336;21.182;2024-01-25T00:19:15;99483.72;;;6.26;83.96
83843;BME280;73869;52.336;21.182;2024-01-25T00:21:42;99494.66;;;6.37;83.39
83843;BME280;73869;52.336;21.182;2024-01-25T00:24:10;99491.19;;;6.24;84.44
83843;BME280;73869;52.336;21.182;2024-01-25T00:26:36;99494.97;;;6.16;84.89
83843;BME280;73869;52.336;21.182;2024-01-25T00:29:03;99493.50;;;6.20;83.86
83843;BME280;73869;52.336;21.182;2024-01-25T00:31:30;99496.84;;;6.16;84.46
83843;BME280;73869;52.336;21.182;2024-01-25T00:33:58;99513.03;;;6.09;84.24
83843;BME280;73869;52.336;21.182;2024-01-25T00:36:25;99506.19;;;6.13;83.82
83843;BME280;73869;52.336;21.182;2024-01-25T00:38:53;99495.63;;;6.12;84.29
83843;BME280;73869;52.336;21.182;2024-01-25T00:41:20;99504.50;;;6.12;84.09
83843;BME280;73869;52.336;21.182;2024-01-25T00:43:47;99510.34;;;6.09;83.91
83843;BME280;73869;52.336;21.182;2024-01-25T00:46:14;99494.34;;;6.14;83.59
83843;BME280;73869;52.336;21.182;2024-01-25T00:48:41;99499.31;;;6.17;82.84
83843;BME280;73869;52.336;21.182;2024-01-25T00:51:14;99502.47;;;6.08;83.47
83843;BME280;73869;52.336;21.182;2024-01-25T00:53:42;99504.16;;;6.09;83.86
83843;BME280;73869;52.336;21.182;2024-01-25T00:56:10;99511.16;;;6.16;83.56
83843;BME280;73869;52.336;21.182;2024-01-25T00:58:37;99513.44;;;6.13;83.56
83843;BME280;73869;52.336;21.182;2024-01-25T01:01:06;99503.53;;;6.07;84.26
83843;BME280;73869;52.336;21.182;2024-01-25T01:03:33;99509.31;;;6.10;84.04
83843;BME280;73869;52.336;21.182;2024-01-25T01:06:00;99496.88;;;6.03;84.16
83843;BME280;73869;52.336;21.182;2024-01-25T01:08:28;99500.41;;;6.03;84.29
83843;BME280;73869;52.336;21.182;2024-01-25T01:10:55;99502.47;;;6.08;84.21
83843;BME280;73869;52.336;21.182;2024-01-25T01:13:21;99506.66;;;6.04;84.99
83843;BME280;73869;52.336;21.182;2024-01-25T01:15:48;99489.47;;;5.92;85.05
83843;BME280;73869;52.336;21.182;2024-01-25T01:18:14;99512.66;;;5.93;85.23
83843;BME280;73869;52.336;21.182;2024-01-25T01:20:41;99506.47;;;5.79;86.47
83843;BME280;73869;52.336;21.182;2024-01-25T01:23:08;99505.63;;;5.79;86.80
83843;BME280;73869;52.336;21.182;2024-01-25T01:25:35;99509.16;;;5.79;87.42
83843;BME280;73869;52.336;21.182;2024-01-25T01:28:02;99506.72;;;5.71;87.60
83843;BME280;73869;52.336;21.182;2024-01-25T01:30:29;99510.22;;;5.72;87.51
83843;BME280;73869;52.336;21.182;2024-01-25T01:32:55;99501.69;;;5.75;87.52
83843;BME280;73869;52.336;21.182;2024-01-25T01:35:22;99506.50;;;5.66;88.50
83843;BME280;73869;52.336;21.182;2024-01-25T01:37:48;99499.44;;;5.65;88.02
83843;BME280;73869;52.336;21.182;2024-01-25T01:40:15;99508.38;;;5.66;87.81
83843;BME280;73869;52.336;21.182;2024-01-25T01:42:42;99513.72;;;5.79;87.46
83843;BME280;73869;52.336;21.182;2024-01-25T01:45:11;99506.25;;;5.81;86.24
83843;BME280;73869;52.336;21.182;2024-01-25T01:47:38;99496.94;;;5.77;86.52
83843;BME280;73869;52.336;21.182;2024-01-25T01:50:06;99518.47;;;5.77;86.88
83843;BME280;73869;52.336;21.182;2024-01-25T01:52:33;99503.16;;;5.77;87.46
83843;BME280;73869;52.336;21.182;2024-01-25T01:54:59;99516.41;;;5.79;87.87
83843;BME280;73869;52.336;21.182;2024-01-25T01:57:26;99498.41;;;5.73;87.94
83843;BME280;73869;52.336;21.182;2024-01-25T01:59:56;99513.09;;;5.77;87.81
83843;BME280;73869;52.336;21.182;2024-01-25T02:02:23;99505.66;;;5.72;87.40
83843;BME280;73869;52.336;21.182;2024-01-25T02:04:50;99495.72;;;5.73;87.76
83843;BME280;73869;52.336;21.182;2024-01-25T02:07:16;99497.13;;;5.82;86.84
83843;BME280;73869;52.336;21.182;2024-01-25T02:09:43;99504.38;;;5.75;86.86
83843;BME280;73869;52.336;21.182;2024-01-25T02:12:09;99503.81;;;5.86;86.33
83843;BME280;73869;52.336;21.182;2024-01-25T02:14:36;99503.59;;;5.87;86.43
83843;BME280;73869;52.336;21.182;2024-01-25T02:17:03;99506.06;;;5.89;85.28
83843;BME280;73869;52.336;21.182;2024-01-25T02:19:30;99505.03;;;5.83;85.71
83843;BME280;73869;52.336;21.182;2024-01-25T02:21:57;99494.84;;;5.79;85.69
83843;BME280;73869;52.336;21.182;2024-01-25T02:24:26;99508.97;;;5.81;85.92
83843;BME280;73869;52.336;21.182;2024-01-25T02:26:52;99501.31;;;5.78;85.59
83843;BME280;73869;52.336;21.182;2024-01-25T02:29:19;99514.16;;;5.82;86.66
83843;BME280;73869;52.336;21.182;2024-01-25T02:31:45;99496.94;;;5.70;87.40
83843;BME280;73869;52.336;21.182;2024-01-25T02:34:12;99503.81;;;5.66;87.66
83843;BME280;73869;52.336;21.182;2024-01-25T02:36:39;99531.75;;;5.65;87.61
83843;BME280;73869;52.336;21.182;2024-01-25T02:39:05;99516.66;;;5.58;88.13
83843;BME280;73869;52.336;21.182;2024-01-25T02:41:33;99516.69;;;5.51;88.99
83843;BME280;73869;52.336;21.182;2024-01-25T02:44:00;99515.41;;;5.47;89.84
83843;BME280;73869;52.336;21.182;2024-01-25T02:46:28;99507.97;;;5.42;90.11
83843;BME280;73869;52.336;21.182;2024-01-25T02:48:58;99500.31;;;5.33;90.25
83843;BME280;73869;52.336;21.182;2024-01-25T02:51:25;99516.06;;;5.36;89.60
83843;BME280;73869;52.336;21.182;2024-01-25T02:53:51;99521.66;;;5.28;91.83
83843;BME280;73869;52.336;21.182;2024-01-25T02:56:18;99522.50;;;5.22;91.58
83843;BME280;73869;52.336;21.182;2024-01-25T02:58:46;99513.56;;;5.21;91.87
83843;BME280;73869;52.336;21.182;2024-01-25T03:01:12;99516.91;;;5.23;92.13
83843;BME280;73869;52.336;21.182;2024-01-25T03:03:39;99522.50;;;5.15;92.58
83843;BME280;73869;52.336;21.182;2024-01-25T03:06:06;99518.53;;;5.18;92.79
83843;BME280;73869;52.336;21.182;2024-01-25T03:08:33;99528.09;;;5.14;93.29
83843;BME280;73869;52.336;21.182;2024-01-25T03:10:59;99516.69;;;5.12;92.72
83843;BME280;73869;52.336;21.182;2024-01-25T03:13:28;99523.50;;;5.14;93.16
83843;BME280;73869;52.336;21.182;2024-01-25T03:15:56;99534.06;;;5.09;92.35
83843;BME280;73869;52.336;21.182;2024-01-25T03:18:23;99522.88;;;5.12;93.38
83843;BME280;73869;52.336;21.182;2024-01-25T03:20:49;99536.13;;;5.07;93.19
83843;BME280;73869;52.336;21.182;2024-01-25T03:23:18;99523.91;;;5.05;93.53
83843;BME280;73869;52.336;21.182;2024-01-25T03:25:44;99541.53;;;5.14;93.02
83843;BME280;73869;52.336;21.182;2024-01-25T03:28:11;99543.38;;;5.07;92.88
83843;BME280;73869;52.336;21.182;2024-01-25T03:30:39;99538.44;;;5.10;93.31
83843;BME280;73869;52.336;21.182;2024-01-25T03:33:06;99556.44;;;5.10;92.75
83843;BME280;73869;52.336;21.182;2024-01-25T03:35:33;99546.88;;;5.01;93.58
83843;BME280;73869;52.336;21.182;2024-01-25T03:37:59;99538.63;;;5.09;93.13
83843;BME280;73869;52.336;21.182;2024-01-25T03:40:26;99531.16;;;4.98;92.31
83843;BME280;73869;52.336;21.182;2024-01-25T03:42:53;99532.63;;;5.07;92.66
83843;BME280;73869;52.336;21.182;2024-01-25T03:45:19;99529.31;;;5.05;92.77
83843;BME280;73869;52.336;21.182;2024-01-25T03:47:46;99530.94;;;5.06;91.61
83843;BME280;73869;52.336;21.182;2024-01-25T03:50:14;99538.44;;;5.10;92.39
83843;BME280;73869;52.336;21.182;2024-01-25T03:52:41;99544.03;;;5.15;91.61
83843;BME280;73869;52.336;21.182;2024-01-25T03:55:07;99540.91;;;5.05;91.60
83843;BME280;73869;52.336;21.182;2024-01-25T03:57:34;99524.13;;;5.10;91.36
83843;BME280;73869;52.336;21.182;2024-01-25T04:00:01;99541.13;;;5.04;92.31
83843;BME280;73869;52.336;21.182;2024-01-25T04:02:31;99539.03;;;5.06;92.59
83843;BME280;73869;52.336;21.182;2024-01-25T04:04:57;99544.63;;;5.11;92.20
83843;BME280;73869;52.336;21.182;2024-01-25T04:07:25;99529.94;;;5.13;91.65
83843;BME280;73869;52.336;21.182;2024-01-25T04:09:51;99548.78;;;5.13;90.55
83843;BME280;73869;52.336;21.182;2024-01-25T04:12:18;99541.72;;;5.12;90.56
83843;BME280;73869;52.336;21.182;2024-01-25T04:14:44;99538.00;;;5.07;91.59
83843;BME280;73869;52.336;21.182;2024-01-25T04:17:11;99543.38;;;5.07;91.08
83843;BME280;73869;52.336;21.182;2024-01-25T04:19:37;99548.56;;;5.08;90.85
83843;BME280;73869;52.336;21.182;2024-01-25T04:22:04;99554.38;;;5.12;90.22
83843;BME280;73869;52.336;21.182;2024-01-25T04:24:32;99556.00;;;5.13;90.47
83843;BME280;73869;52.336;21.182;2024-01-25T04:26:59;99541.53;;;5.14;91.18
83843;BME280;73869;52.336;21.182;2024-01-25T04:29:25;99561.19;;;5.21;90.21
83843;BME280;73869;52.336;21.182;2024-01-25T04:31:51;99564.72;;;5.21;90.11
83843;BME280;73869;52.336;21.182;2024-01-25T04:34:18;99553.53;;;5.18;89.72
83843;BME280;73869;52.336;21.182;2024-01-25T04:36:45;99564.50;;;5.16;89.95
83843;BME280;73869;52.336;21.182;2024-01-25T04:39:11;99565.13;;;5.18;89.57
83843;BME280;73869;52.336;21.182;2024-01-25T04:41:39;99558.69;;;5.13;89.59
83843;BME280;73869;52.336;21.182;2024-01-25T04:44:05;99560.97;;;5.09;89.01
83843;BME280;73869;52.336;21.182;2024-01-25T04:46:32;99564.09;;;5.13;89.18
83843;BME280;73869;52.336;21.182;2024-01-25T04:49:01;99568.25;;;5.22;88.38
83843;BME280;73869;52.336;21.182;2024-01-25T04:51:29;99563.47;;;5.11;89.20
83843;BME280;73869;52.336;21.182;2024-01-25T04:53:56;99575.91;;;5.12;89.80
83843;BME280;73869;52.336;21.182;2024-01-25T04:56:23;99574.22;;;5.11;89.86
83843;BME280;73869;52.336;21.182;2024-01-25T04:58:51;99587.06;;;5.09;89.85
83843;BME280;73869;52.336;21.182;2024-01-25T05:01:19;99575.69;;;5.07;89.72
83843;BME280;73869;52.336;21.182;2024-01-25T05:03:46;99585.63;;;5.13;89.00
83843;BME280;73869;52.336;21.182;2024-01-25T05:06:12;99587.09;;;5.15;89.23
83843;BME280;73869;52.336;21.182;2024-01-25T05:08:41;99580.03;;;5.08;89.15
83843;BME280;73869;52.336;21.182;2024-01-25T05:11:08;99590.56;;;5.09;88.60
83843;BME280;73869;52.336;21.182;2024-01-25T05:13:35;99592.81;;;4.99;89.20
83843;BME280;73869;52.336;21.182;2024-01-25T05:16:03;99571.31;;;5.06;89.18
83843;BME280;73869;52.336;21.182;2024-01-25T05:18:30;99584.16;;;4.97;88.84
83843;BME280;73869;52.336;21.182;2024-01-25T05:20:56;99592.63;;;5.01;88.80
83843;BME280;73869;52.336;21.182;2024-01-25T05:23:23;99582.91;;;5.06;87.58
83843;BME280;73869;52.336;21.182;2024-01-25T05:25:50;99583.75;;;5.07;88.63
83843;BME280;73869;52.336;21.182;2024-01-25T05:28:18;99573.19;;;5.05;88.33
83843;BME280;73869;52.336;21.182;2024-01-25T05:30:45;99595.31;;;5.01;87.72
83843;BME280;73869;52.336;21.182;2024-01-25T05:33:12;99589.78;;;5.09;87.00
83843;BME280;73869;52.336;21.182;2024-01-25T05:35:39;99597.41;;;4.99;87.42
83843;BME280;73869;52.336;21.182;2024-01-25T05:38:05;99586.84;;;4.97;87.84
83843;BME280;73869;52.336;21.182;2024-01-25T05:40:32;99588.72;;;5.03;87.58
83843;BME280;73869;52.336;21.182;2024-01-25T05:42:59;99602.81;;;5.05;87.91
83843;BME280;73869;52.336;21.182;2024-01-25T05:45:25;99592.03;;;5.05;87.09
83843;BME280;73869;52.336;21.182;2024-01-25T05:47:52;99601.75;;;5.13;86.21
83843;BME280;73869;52.336;21.182;2024-01-25T05:50:20;99598.63;;;5.03;86.78
83843;BME280;73869;52.336;21.182;2024-01-25T05:52:46;99598.22;;;5.06;86.47
83843;BME280;73869;52.336;21.182;2024-01-25T05:55:13;99606.94;;;5.08;86.84
83843;BME280;73869;52.336;21.182;2024-01-25T05:57:42;99595.97;;;5.09;86.46
83843;BME280;73869;52.336;21.182;2024-01-25T06:00:11;99606.53;;;5.11;87.73
83843;BME280;73869;52.336;21.182;2024-01-25T06:02:38;99589.56;;;5.04;87.54
83843;BME280;73869;52.336;21.182;2024-01-25T06:05:05;99616.03;;;5.00;87.27
83843;BME280;73869;52.336;21.182;2024-01-25T06:07:33;99616.47;;;5.04;88.03
83843;BME280;73869;52.336;21.182;2024-01-25T06:09:59;99614.34;;;4.99;87.32
83843;BME280;73869;52.336;21.182;2024-01-25T06:12:26;99600.31;;;4.97;87.76
83843;BME280;73869;52.336;21.182;2024-01-25T06:14:52;99615.41;;;4.98;88.61
83843;BME280;73869;52.336;21.182;2024-01-25T06:17:19;99620.78;;;4.98;88.24
83843;BME280;73869;52.336;21.182;2024-01-25T06:19:45;99616.44;;;4.97;88.38
83843;BME280;73869;52.336;21.182;2024-01-25T06:22:11;99623.66;;;4.90;89.27
83843;BME280;73869;52.336;21.182;2024-01-25T06:24:39;99624.50;;;4.91;89.38
83843;BME280;73869;52.336;21.182;2024-01-25T06:27:06;99633.56;;;4.83;89.71
83843;BME280;73869;52.336;21.182;2024-01-25T06:29:32;99621.75;;;4.78;90.04
83843;BME280;73869;52.336;21.182;2024-01-25T06:31:59;99632.13;;;4.81;90.97
83843;BME280;73869;52.336;21.182;2024-01-25T06:34:25;99638.31;;;4.88;90.43
83843;BME280;73869;52.336;21.182;2024-01-25T06:36:52;99635.59;;;4.75;91.22
83843;BME280;73869;52.336;21.182;2024-01-25T06:39:18;99630.66;;;4.78;90.66
83843;BME280;73869;52.336;21.182;2024-01-25T06:41:46;99629.63;;;4.79;90.99
83843;BME280;73869;52.336;21.182;2024-01-25T06:44:13;99624.84;;;4.81;90.95
83843;BME280;73869;52.336;21.182;2024-01-25T06:46:42;99622.97;;;4.75;89.87
83843;BME280;73869;52.336;21.182;2024-01-25T06:49:09;99633.97;;;4.80;90.52
83843;BME280;73869;52.336;21.182;2024-01-25T06:51:35;99635.22;;;4.78;89.97
83843;BME280;73869;52.336;21.182;2024-01-25T06:54:02;99632.13;;;4.81;90.31
83843;BME280;73869;52.336;21.182;2024-01-25T06:56:28;99604.53;;;4.66;89.74
83843;BME280;73869;52.336;21.182;2024-01-25T06:58:56;99630.25;;;4.81;89.95
83843;BME280;73869;52.336;21.182;2024-01-25T07:01:23;99641.19;;;4.80;90.57
83843;BME280;73869;52.336;21.182;2024-01-25T07:03:50;99649.06;;;4.81;89.90
83843;BME280;73869;52.336;21.182;2024-01-25T07:06:16;99637.03;;;4.71;90.41
83843;BME280;73869;52.336;21.182;2024-01-25T07:08:43;99649.66;;;4.70;91.41
83843;BME280;73869;52.336;21.182;2024-01-25T07:11:10;99654.84;;;4.78;90.97
83843;BME280;73869;52.336;21.182;2024-01-25T07:13:36;99659.19;;;4.73;91.09
83843;BME280;73869;52.336;21.182;2024-01-25T07:16:07;99660.63;;;4.75;91.90
83843;BME280;73869;52.336;21.182;2024-01-25T07:18:33;99657.72;;;4.70;92.44
83843;BME280;73869;52.336;21.182;2024-01-25T07:21:00;99663.50;;;4.67;92.57
83843;BME280;73869;52.336;21.182;2024-01-25T07:23:29;99666.56;;;4.58;93.19
83843;BME280;73869;52.336;21.182;2024-01-25T07:25:56;99664.13;;;4.69;92.64
83843;BME280;73869;52.336;21.182;2024-01-25T07:28:23;99683.16;;;4.68;93.29
83843;BME280;73869;52.336;21.182;2024-01-25T07:30:49;99691.63;;;4.65;93.04
83843;BME280;73869;52.336;21.182;2024-01-25T07:33:17;99685.38;;;4.58;94.28
83843;BME280;73869;52.336;21.182;2024-01-25T07:35:43;99677.13;;;4.59;93.14
83843;BME280;73869;52.336;21.182;2024-01-25T07:38:11;99681.91;;;4.64;93.79
83843;BME280;73869;52.336;21.182;2024-01-25T07:40:39;99667.38;;;4.52;93.85
83843;BME280;73869;52.336;21.182;2024-01-25T07:43:06;99687.88;;;4.59;94.72
83843;BME280;73869;52.336;21.182;2024-01-25T07:45:32;99690.56;;;4.59;94.57
83843;BME280;73869;52.336;21.182;2024-01-25T07:47:59;99688.31;;;4.63;93.91
83843;BME280;73869;52.336;21.182;2024-01-25T07:50:27;99697.38;;;4.62;94.50
83843;BME280;73869;52.336;21.182;2024-01-25T07:52:54;99686.47;;;4.70;94.22
83843;BME280;73869;52.336;21.182;2024-01-25T07:55:22;99701.13;;;4.61;94.69
83843;BME280;73869;52.336;21.182;2024-01-25T07:57:49;99695.78;;;4.67;94.01
83843;BME280;73869;52.336;21.182;2024-01-25T08:00:16;99683.13;;;4.61;93.83
83843;BME280;73869;52.336;21.182;2024-01-25T08:02:42;99700.94;;;4.69;93.50
83843;BME280;73869;52.336;21.182;2024-01-25T08:05:10;99686.69;;;4.75;94.23
83843;BME280;73869;52.336;21.182;2024-01-25T08:07:39;99686.09;;;4.73;93.05
83843;BME280;73869;52.336;21.182;2024-01-25T08:10:07;99689.38;;;4.75;93.02
83843;BME280;73869;52.336;21.182;2024-01-25T08:12:36;99690.03;;;4.77;93.06
83843;BME280;73869;52.336;21.182;2024-01-25T08:15:06;99696.84;;;4.73;94.47
83843;BME280;73869;52.336;21.182;2024-01-25T08:17:32;99701.59;;;4.71;93.36
83843;BME280;73869;52.336;21.182;2024-01-25T08:20:01;99691.47;;;4.73;93.18
83843;BME280;73869;52.336;21.182;2024-01-25T08:22:27;99686.91;;;4.73;93.52
83843;BME280;73869;52.336;21.182;2024-01-25T08:24:55;99692.69;;;4.70;94.17
83843;BME280;73869;52.336;21.182;2024-01-25T08:27:22;99705.28;;;4.70;94.51
83843;BME280;73869;52.336;21.182;2024-01-25T08:29:48;99713.00;;;4.73;93.47
83843;BME280;73869;52.336;21.182;2024-01-25T08:32:15;99715.28;;;4.76;93.03
83843;BME280;73869;52.336;21.182;2024-01-25T08:34:41;99712.38;;;4.77;92.30
83843;BME280;73869;52.336;21.182;2024-01-25T08:37:08;99709.06;;;4.75;93.64
83843;BME280;73869;52.336;21.182;2024-01-25T08:39:34;99717.75;;;4.77;93.22
83843;BME280;73869;52.336;21.182;2024-01-25T08:42:03;99713.59;;;4.75;92.96
83843;BME280;73869;52.336;21.182;2024-01-25T08:44:31;99715.72;;;4.79;92.43
83843;BME280;73869;52.336;21.182;2024-01-25T08:46:58;99729.97;;;4.80;92.67
83843;BME280;73869;52.336;21.182;2024-01-25T08:49:24;99728.53;;;4.77;93.53
83843;BME280;73869;52.336;21.182;2024-01-25T08:51:51;99737.19;;;4.73;93.91
83843;BME280;73869;52.336;21.182;2024-01-25T08:54:17;99741.56;;;4.80;92.26
83843;BME280;73869;52.336;21.182;2024-01-25T08:56:44;99734.09;;;4.76;93.73
83843;BME280;73869;52.336;21.182;2024-01-25T08:59:12;99747.56;;;4.76;93.85
83843;BME280;73869;52.336;21.182;2024-01-25T09:01:38;99748.56;;;4.75;93.64
83843;BME280;73869;52.336;21.182;2024-01-25T09:04:05;99748.97;;;4.72;93.80
83843;BME280;73869;52.336;21.182;2024-01-25T09:06:32;99752.09;;;4.75;93.34
83843;BME280;73869;52.336;21.182;2024-01-25T09:08:59;99767.03;;;4.78;92.60
83843;BME280;73869;52.336;21.182;2024-01-25T09:11:25;99764.09;;;4.73;93.86
83843;BME280;73869;52.336;21.182;2024-01-25T09:13:52;99778.75;;;4.70;93.42
83843;BME280;73869;52.336;21.182;2024-01-25T09:16:20;99775.69;;;4.80;92.59
83843;BME280;73869;52.336;21.182;2024-01-25T09:18:47;99777.94;;;4.76;93.53
83843;BME280;73869;52.336;21.182;2024-01-25T09:21:14;99775.25;;;4.76;93.63
83843;BME280;73869;52.336;21.182;2024-01-25T09:23:40;99787.69;;;4.77;94.02
83843;BME280;73869;52.336;21.182;2024-01-25T09:26:06;99775.66;;;4.73;94.48
83843;BME280;73869;52.336;21.182;2024-01-25T09:28:34;99780.63;;;4.76;94.21
83843;BME280;73869;52.336;21.182;2024-01-25T09:31:00;99787.31;;;4.80;94.71
83843;BME280;73869;52.336;21.182;2024-01-25T09:33:29;99803.03;;;4.83;93.80
83843;BME280;73869;52.336;21.182;2024-01-25T09:35:56;99809.66;;;4.81;94.58
83843;BME280;73869;52.336;21.182;2024-01-25T09:38:23;99792.09;;;4.85;94.36
83843;BME280;73869;52.336;21.182;2024-01-25T09:40:49;99803.09;;;4.90;93.44
83843;BME280;73869;52.336;21.182;2024-01-25T09:43:17;99796.91;;;4.89;94.12
83843;BME280;73869;52.336;21.182;2024-01-25T09:45:46;99808.50;;;4.96;95.41
83843;BME280;73869;52.336;21.182;2024-01-25T09:48:15;99802.13;;;4.97;95.06
83843;BME280;73869;52.336;21.182;2024-01-25T09:50:48;99810.56;;;4.94;94.58
83843;BME280;73869;52.336;21.182;2024-01-25T09:53:16;99813.44;;;4.93;95.28
83843;BME280;73869;52.336;21.182;2024-01-25T09:55:45;99807.88;;;4.94;95.02
83843;BME280;73869;52.336;21.182;2024-01-25T09:58:13;99818.03;;;4.92;94.61
83843;BME280;73869;52.336;21.182;2024-01-25T10:00:40;99834.16;;;4.92;94.87
83843;BME280;73869;52.336;21.182;2024-01-25T10:03:09;99816.34;;;4.91;94.89
83843;BME280;73869;52.336;21.182;2024-01-25T10:05:36;99835.00;;;4.99;93.54
83843;BME280;73869;52.336;21.182;2024-01-25T10:08:12;99830.00;;;4.90;94.22
83843;BME280;73869;52.336;21.182;2024-01-25T10:10:39;99837.06;;;4.91;94.51
83843;BME280;73869;52.336;21.182;2024-01-25T10:13:12;99845.94;;;4.91;95.24
83843;BME280;73869;52.336;21.182;2024-01-25T10:15:41;99843.94;;;5.00;93.34
83843;BME280;73869;52.336;21.182;2024-01-25T10:18:09;99843.28;;;4.98;94.61
83843;BME280;73869;52.336;21.182;2024-01-25T10:20:38;99844.38;;;5.03;94.38
83843;BME280;73869;52.336;21.182;2024-01-25T10:23:07;99843.09;;;4.99;93.57
83843;BME280;73869;52.336;21.182;2024-01-25T10:25:34;99853.88;;;5.06;94.93
83843;BME280;73869;52.336;21.182;2024-01-25T10:28:01;99845.63;;;5.07;95.02
83843;BME280;73869;52.336;21.182;2024-01-25T10:30:31;99848.75;;;5.11;94.24
83843;BME280;73869;52.336;21.182;2024-01-25T10:33:00;99852.50;;;5.16;94.12
83843;BME280;73869;52.336;21.182;2024-01-25T10:35:27;99859.34;;;5.19;94.57
83843;BME280;73869;52.336;21.182;2024-01-25T10:37:54;99849.66;;;5.24;94.03
83843;BME280;73869;52.336;21.182;2024-01-25T10:40:23;99861.06;;;5.26;93.48
83843;BME280;73869;52.336;21.182;2024-01-25T10:42:50;99858.19;;;5.28;93.83
83843;BME280;73869;52.336;21.182;2024-01-25T10:45:16;99850.31;;;5.26;93.69
83843;BME280;73869;52.336;21.182;2024-01-25T10:47:44;99866.22;;;5.21;93.17
83843;BME280;73869;52.336;21.182;2024-01-25T10:50:14;99867.44;;;5.19;92.89
83843;BME280;73869;52.336;21.182;2024-01-25T10:52:41;99863.97;;;5.25;92.87
83843;BME280;73869;52.336;21.182;2024-01-25T10:55:11;99871.19;;;5.24;93.47
83843;BME280;73869;52.336;21.182;2024-01-25T10:57:42;99874.34;;;5.28;93.17
83843;BME280;73869;52.336;21.182;2024-01-25T11:00:10;99884.47;;;5.26;93.52
83843;BME280;73869;52.336;21.182;2024-01-25T11:02:37;99882.59;;;5.26;93.63
83843;BME280;73869;52.336;21.182;2024-01-25T11:05:07;99890.25;;;5.23;93.93
83843;BME280;73869;52.336;21.182;2024-01-25T11:07:41;99885.69;;;5.23;93.25
83843;BME280;73869;52.336;21.182;2024-01-25T11:10:12;99883.22;;;5.22;92.59
83843;BME280;73869;52.336;21.182;2024-01-25T11:12:48;99883.41;;;5.20;92.46
83843;BME280;73869;52.336;21.182;2024-01-25T11:15:18;99897.88;;;5.19;93.77
83843;BME280;73869;52.336;21.182;2024-01-25T11:17:50;99900.31;;;5.14;94.37
83843;BME280;73869;52.336;21.182;2024-01-25T11:20:20;99896.88;;;5.20;93.67
83843;BME280;73869;52.336;21.182;2024-01-25T11:22:46;99908.41;;;5.14;92.94
83843;BME280;73869;52.336;21.182;2024-01-25T11:25:19;99910.69;;;5.17;92.33
83843;BME280;73869;52.336;21.182;2024-01-25T11:27:47;99914.66;;;5.21;93.53
83843;BME280;73869;52.336;21.182;2024-01-25T11:30:17;99911.97;;;5.21;92.89
83843;BME280;73869;52.336;21.182;2024-01-25T11:32:46;99915.88;;;5.19;92.62
83843;BME280;73869;52.336;21.182;2024-01-25T11:35:12;99913.84;;;5.21;92.39
83843;BME280;73869;52.336;21.182;2024-01-25T11:37:42;99917.16;;;5.23;92.15
83843;BME280;73869;52.336;21.182;2024-01-25T11:40:10;99923.84;;;5.27;92.43
83843;BME280;73869;52.336;21.182;2024-01-25T11:42:37;99919.00;;;5.22;93.13
83843;BME280;73869;52.336;21.182;2024-01-25T11:45:06;99927.50;;;5.19;93.48
83843;BME280;73869;52.336;21.182;2024-01-25T11:47:34;99935.38;;;5.21;93.91
83843;BME280;73869;52.336;21.182;2024-01-25T11:50:00;99937.00;;;5.15;93.78
83843;BME280;73869;52.336;21.182;2024-01-25T11:52:27;99938.59;;;5.10;93.31
83843;BME280;73869;52.336;21.182;2024-01-25T11:54:57;99930.38;;;4.90;94.70
83843;BME280;73869;52.336;21.182;2024-01-25T11:57:37;99958.59;;;5.01;94.61
83843;BME280;73869;52.336;21.182;2024-01-25T12:07:53;100002.25;;;4.54;92.11
83843;BME280;73869;52.336;21.182;2024-01-25T12:10:22;100016.28;;;4.50;92.89
83843;BME280;73869;52.336;21.182;2024-01-25T12:12:51;100020.53;;;4.44;90.20
83843;BME280;73869;52.336;21.182;2024-01-25T12:15:18;100032.34;;;4.43;91.62
83843;BME280;73869;52.336;21.182;2024-01-25T12:17:44;100029.38;;;4.38;92.44
83843;BME280;73869;52.336;21.182;2024-01-25T12:20:11;100041.06;;;4.31;90.60
83843;BME280;73869;52.336;21.182;2024-01-25T12:22:40;100030.69;;;4.28;91.82
83843;BME280;73869;52.336;21.182;2024-01-25T12:25:07;100040.97;;;4.24;91.05
83843;BME280;73869;52.336;21.182;2024-01-25T12:27:34;100057.75;;;4.26;91.11
83843;BME280;73869;52.336;21.182;2024-01-25T12:30:03;100047.84;;;4.27;90.63
83843;BME280;73869;52.336;21.182;2024-01-25T12:32:29;100066.00;;;4.25;90.33
83843;BME280;73869;52.336;21.182;2024-01-25T12:34:57;100060.75;;;4.17;92.16
83843;BME280;73869;52.336;21.182;2024-01-25T12:37:24;100080.22;;;4.19;91.16
83843;BME280;73869;52.336;21.182;2024-01-25T12:39:53;100082.06;;;4.18;90.73
83843;BME280;73869;52.336;21.182;2024-01-25T12:42:20;100086.31;;;4.12;90.68
83843;BME280;73869;52.336;21.182;2024-01-25T12:44:52;100094.28;;;4.06;91.80
83843;BME280;73869;52.336;21.182;2024-01-25T12:47:18;100097.81;;;4.06;91.84
83843;BME280;73869;52.336;21.182;2024-01-25T12:49:45;100099.03;;;4.04;92.13
83843;BME280;73869;52.336;21.182;2024-01-25T12:52:15;100109.22;;;4.08;93.01
83843;BME280;73869;52.336;21.182;2024-01-25T12:54:42;100101.63;;;4.12;91.04
83843;BME280;73869;52.336;21.182;2024-01-25T12:57:09;100109.22;;;4.08;92.98
83843;BME280;73869;52.336;21.182;2024-01-25T12:59:36;100096.16;;;4.05;91.73
83843;BME280;73869;52.336;21.182;2024-01-25T13:02:03;100096.72;;;4.16;91.68
83843;BME280;73869;52.336;21.182;2024-01-25T13:04:30;100107.75;;;4.21;91.00
83843;BME280;73869;52.336;21.182;2024-01-25T13:06:59;100117.06;;;4.25;89.61
83843;BME280;73869;52.336;21.182;2024-01-25T13:09:27;100120.63;;;4.25;89.55